createdAt,value
2022-10-26T00:01:24.248Z,8.27
2022-10-26T00:04:12.805Z,6.72
2022-10-26T00:07:02.388Z,6.03
2022-10-26T00:09:50.738Z,6.28
2022-10-26T00:12:39.410Z,7.30
2022-10-26T00:15:27.977Z,7.85
2022-10-26T00:18:16.249Z,6.10
2022-10-26T00:21:05.359Z,6.03
2022-10-26T00:23:55.309Z,7.07
2022-10-26T00:26:44.188Z,7.38
2022-10-26T00:29:32.673Z,7.78
2022-10-26T00:32:21.187Z,7.47
2022-10-26T00:35:21.304Z,7.28
2022-10-26T00:38:12.966Z,6.82
2022-10-26T00:41:02.970Z,6.85
2022-10-26T00:43:51.714Z,7.00
2022-10-26T00:46:40.614Z,7.00
2022-10-26T00:49:32.259Z,7.78
2022-10-26T00:52:21.827Z,7.93
2022-10-26T00:55:10.654Z,9.18
2022-10-26T00:58:02.334Z,6.70
2022-10-26T01:00:51.079Z,7.85
2022-10-26T01:03:40.586Z,7.75
2022-10-26T01:06:29.765Z,6.82
2022-10-26T01:09:19.353Z,8.20
2022-10-26T01:12:07.567Z,7.97
2022-10-26T01:14:57.978Z,8.10
2022-10-26T01:17:56.373Z,8.07
2022-10-26T01:21:29.021Z,7.10
2022-10-26T01:24:58.439Z,8.35
2022-10-26T01:27:49.502Z,6.80
2022-10-26T01:30:42.018Z,8.88
2022-10-26T01:33:34.859Z,7.43
2022-10-26T01:39:29.688Z,8.98
2022-10-26T01:42:20.339Z,8.23
2022-10-26T01:45:11.920Z,8.13
2022-10-26T01:48:03.286Z,8.23
2022-10-26T01:50:55.359Z,7.43
2022-10-26T01:53:47.209Z,8.23
2022-10-26T01:56:40.369Z,7.43
2022-10-26T01:59:52.619Z,8.45
2022-10-26T02:03:09.886Z,8.43
2022-10-26T02:06:11.536Z,8.65
2022-10-26T02:09:09.847Z,7.90
2022-10-26T02:11:59.564Z,7.15
2022-10-26T02:14:52.005Z,7.60
2022-10-26T02:17:49.831Z,8.60
2022-10-26T02:20:44.420Z,5.90
2022-10-26T02:23:36.704Z,7.70
2022-10-26T02:26:29.239Z,7.38
2022-10-26T02:29:21.765Z,8.52
2022-10-26T02:32:12.337Z,8.52
2022-10-26T02:35:03.274Z,8.20
2022-10-26T02:37:55.740Z,8.13
2022-10-26T02:40:44.268Z,7.65
2022-10-26T02:43:37.790Z,7.57
2022-10-26T02:46:28.903Z,7.40
2022-10-26T02:49:18.091Z,7.28
2022-10-26T02:52:11.876Z,6.80
2022-10-26T02:55:07.135Z,6.13
2022-10-26T02:58:00.111Z,9.63
2022-10-26T03:00:48.707Z,8.93
2022-10-26T03:03:37.120Z,7.38
2022-10-26T03:06:26.722Z,7.43
2022-10-26T03:09:14.651Z,7.65
2022-10-26T03:12:05.340Z,7.57
2022-10-26T03:14:53.180Z,9.60
2022-10-26T03:17:41.711Z,6.75
2022-10-26T03:20:30.134Z,7.78
2022-10-26T03:23:18.969Z,6.80
2022-10-26T03:26:07.531Z,9.43
2022-10-26T03:28:57.740Z,8.85
2022-10-26T03:31:45.694Z,8.77
2022-10-26T03:34:34.042Z,8.35
2022-10-26T03:37:22.405Z,7.13
2022-10-26T03:40:12.155Z,7.75
2022-10-26T03:43:00.520Z,8.38
2022-10-26T03:45:50.442Z,7.70
2022-10-26T03:48:38.598Z,8.23
2022-10-26T03:51:28.160Z,7.78
2022-10-26T03:54:16.958Z,7.30
2022-10-26T03:57:05.300Z,7.65
2022-10-26T03:59:53.340Z,8.00
2022-10-26T04:02:46.923Z,7.40
2022-10-26T04:05:35.875Z,8.48
2022-10-26T04:08:24.818Z,8.65
2022-10-26T04:11:13.070Z,9.32
2022-10-26T04:14:01.679Z,7.93
2022-10-26T04:16:50.098Z,7.10
2022-10-26T04:19:40.228Z,7.70
2022-10-26T04:22:28.132Z,6.93
2022-10-26T04:25:16.596Z,10.93
2022-10-26T04:28:06.528Z,8.38
2022-10-26T04:30:55.323Z,7.25
2022-10-26T04:33:43.303Z,8.82
2022-10-26T04:36:34.775Z,7.32
2022-10-26T04:39:23.003Z,8.45
2022-10-26T04:42:11.854Z,7.72
2022-10-26T04:44:59.762Z,8.43
2022-10-26T04:47:48.722Z,8.80
2022-10-26T04:50:37.455Z,7.45
2022-10-26T04:53:28.685Z,9.23
2022-10-26T04:56:16.467Z,9.07
2022-10-26T04:59:06.366Z,8.70
2022-10-26T05:01:54.308Z,7.68
2022-10-26T05:04:43.657Z,7.13
2022-10-26T05:07:31.575Z,8.40
2022-10-26T05:10:21.501Z,8.80
2022-10-26T05:13:11.930Z,7.93
2022-10-26T05:16:00.554Z,8.15
2022-10-26T05:18:50.480Z,9.50
2022-10-26T05:21:39.486Z,8.67
2022-10-26T05:24:27.588Z,10.38
2022-10-26T05:27:17.879Z,8.07
2022-10-26T05:33:02.398Z,8.25
2022-10-26T05:35:50.658Z,9.48
2022-10-26T05:38:39.086Z,9.13
2022-10-26T05:41:28.080Z,7.07
2022-10-26T05:44:18.351Z,8.82
2022-10-26T05:47:07.458Z,7.75
2022-10-26T05:49:56.277Z,9.07
2022-10-26T05:52:45.854Z,7.13
2022-10-26T05:55:35.016Z,7.57
2022-10-26T05:58:23.968Z,7.00
2022-10-26T06:01:25.432Z,8.07
2022-10-26T06:04:28.601Z,9.35
2022-10-26T06:07:20.306Z,7.60
2022-10-26T06:12:57.994Z,6.65
2022-10-26T06:15:55.055Z,7.45
2022-10-26T06:18:52.785Z,8.73
2022-10-26T06:21:51.692Z,8.30
2022-10-26T06:24:46.447Z,8.32
2022-10-26T06:27:45.024Z,6.90
2022-10-26T06:30:33.893Z,7.80
2022-10-26T06:33:29.595Z,7.05
2022-10-26T06:36:24.433Z,7.53
2022-10-26T06:39:15.161Z,9.35
2022-10-26T06:42:04.327Z,8.50
2022-10-26T06:44:52.819Z,7.63
2022-10-26T06:47:47.629Z,8.45
2022-10-26T06:50:39.439Z,6.90
2022-10-26T06:53:34.770Z,8.50
2022-10-26T06:56:24.770Z,7.32
2022-10-26T06:59:18.753Z,7.03
2022-10-26T07:02:07.023Z,7.57
2022-10-26T07:04:55.651Z,7.78
2022-10-26T07:07:45.976Z,7.38
2022-10-26T07:10:39.096Z,7.22
2022-10-26T07:13:27.320Z,7.38
2022-10-26T07:16:15.873Z,7.07
2022-10-26T07:19:04.126Z,8.63
2022-10-26T07:21:52.995Z,6.93
2022-10-26T07:24:41.750Z,7.22
2022-10-26T07:27:31.755Z,6.40
2022-10-26T07:30:19.957Z,6.43
2022-10-26T07:33:10.001Z,7.15
2022-10-26T07:36:00.240Z,6.05
2022-10-26T07:38:48.990Z,6.37
2022-10-26T07:41:37.382Z,5.75
2022-10-26T07:44:27.996Z,6.45
2022-10-26T07:47:16.549Z,7.10
2022-10-26T07:50:05.966Z,5.72
2022-10-26T07:52:54.650Z,4.47
2022-10-26T07:55:43.484Z,4.82
2022-10-26T07:58:33.023Z,5.38
2022-10-26T08:01:23.177Z,6.32
2022-10-26T08:04:12.428Z,5.13
2022-10-26T08:07:00.975Z,5.45
2022-10-26T08:09:49.254Z,5.25
2022-10-26T08:12:38.086Z,6.47
2022-10-26T08:15:26.054Z,4.78
2022-10-26T08:18:16.227Z,5.65
2022-10-26T08:21:11.143Z,5.15
2022-10-26T08:24:00.172Z,4.88
2022-10-26T08:26:48.274Z,6.22
2022-10-26T08:29:37.028Z,5.22
2022-10-26T08:32:25.708Z,5.32
2022-10-26T08:35:15.838Z,4.20
2022-10-26T08:38:04.045Z,4.55
2022-10-26T08:40:53.212Z,5.43
2022-10-26T08:43:44.288Z,5.78
2022-10-26T08:46:37.746Z,6.90
2022-10-26T08:49:31.011Z,6.00
2022-10-26T08:52:26.376Z,5.82
2022-10-26T08:55:19.583Z,4.90
2022-10-26T08:58:15.973Z,5.03
2022-10-26T09:01:05.621Z,6.05
2022-10-26T09:03:54.501Z,6.13
2022-10-26T09:06:50.055Z,5.22
2022-10-26T09:09:50.130Z,5.35
2022-10-26T09:12:46.279Z,5.95
2022-10-26T09:15:48.155Z,5.50
2022-10-26T09:21:38.812Z,5.45
2022-10-26T09:24:32.778Z,5.63
2022-10-26T09:27:27.739Z,7.60
2022-10-26T09:30:18.029Z,8.43
2022-10-26T09:33:15.095Z,7.20
2022-10-26T09:36:07.123Z,10.52
2022-10-26T09:38:59.151Z,9.05
2022-10-26T09:41:51.396Z,6.78
2022-10-26T09:44:46.675Z,7.97
2022-10-26T09:47:37.825Z,6.93
2022-10-26T09:53:19.170Z,6.18
2022-10-26T09:56:10.772Z,5.80
2022-10-26T10:01:52.187Z,4.88
2022-10-26T10:04:48.230Z,5.55
2022-10-26T10:07:40.020Z,5.80
2022-10-26T10:10:28.634Z,6.05
2022-10-26T10:13:18.280Z,5.30
2022-10-26T10:16:09.720Z,4.72
2022-10-26T10:19:00.985Z,6.68
2022-10-26T10:21:52.392Z,10.48
2022-10-26T10:24:43.301Z,4.80
2022-10-26T10:27:33.655Z,6.22
2022-10-26T10:30:24.415Z,7.32
2022-10-26T10:33:13.694Z,5.90
2022-10-26T10:36:05.225Z,5.03
2022-10-26T10:38:55.126Z,4.93
2022-10-26T10:41:46.454Z,4.70
2022-10-26T10:44:36.072Z,5.10
2022-10-26T10:47:27.097Z,4.30
2022-10-26T10:50:20.725Z,4.72
2022-10-26T10:53:19.927Z,3.58
2022-10-26T10:56:21.645Z,5.00
2022-10-26T10:59:32.051Z,6.53
2022-10-26T11:02:53.682Z,5.10
2022-10-26T11:05:55.227Z,5.80
2022-10-26T11:11:41.866Z,4.32
2022-10-26T11:14:37.321Z,6.38
2022-10-26T11:17:29.303Z,4.15
2022-10-26T11:20:22.479Z,5.45
2022-10-26T11:23:15.138Z,4.65
2022-10-26T11:26:13.405Z,6.13
2022-10-26T11:29:07.052Z,4.95
2022-10-26T11:32:02.164Z,5.20
2022-10-26T11:34:57.046Z,5.53
2022-10-26T11:37:51.211Z,4.45
2022-10-26T11:40:46.608Z,5.53
2022-10-26T11:43:40.483Z,5.93
2022-10-26T11:46:33.642Z,4.32
2022-10-26T11:49:27.941Z,8.40
2022-10-26T11:52:22.250Z,5.82
2022-10-26T11:55:12.674Z,5.63
2022-10-26T11:58:02.977Z,6.45
2022-10-26T12:00:57.919Z,5.35
2022-10-26T12:03:49.541Z,8.05
2022-10-26T12:09:34.847Z,4.68
2022-10-26T12:12:36.434Z,5.32
2022-10-26T12:15:40.091Z,5.45
2022-10-26T12:18:55.401Z,5.70
2022-10-26T12:21:44.314Z,5.28
2022-10-26T12:24:35.644Z,5.82
2022-10-26T12:27:50.047Z,5.95
2022-10-26T12:30:38.474Z,5.38
2022-10-26T12:33:31.142Z,4.88
2022-10-26T12:36:52.373Z,7.63
2022-10-26T12:39:41.925Z,6.10
2022-10-26T12:42:31.448Z,6.28
2022-10-26T12:45:22.211Z,5.50
2022-10-26T12:48:38.987Z,5.40
2022-10-26T12:51:44.997Z,5.35
2022-10-26T12:54:45.075Z,6.72
2022-10-26T12:57:42.407Z,6.50
2022-10-26T13:00:31.295Z,5.30
2022-10-26T13:03:31.354Z,5.25
2022-10-26T13:06:46.546Z,6.35
2022-10-26T13:09:36.353Z,7.70
2022-10-26T13:12:25.290Z,6.88
2022-10-26T13:15:25.798Z,5.93
2022-10-26T13:18:19.118Z,9.27
2022-10-26T13:21:12.076Z,5.05
2022-10-26T13:24:05.713Z,6.88
2022-10-26T13:27:41.665Z,8.48
2022-10-26T13:30:46.947Z,5.65
2022-10-26T13:33:39.622Z,5.72
2022-10-26T13:36:34.308Z,6.10
2022-10-26T13:39:27.245Z,5.93
2022-10-26T13:42:18.907Z,6.32
2022-10-26T13:45:13.652Z,7.15
2022-10-26T13:48:06.920Z,7.22
2022-10-26T13:53:53.900Z,6.38
2022-10-26T13:56:51.902Z,5.93
2022-10-26T13:59:43.990Z,7.15
2022-10-26T14:02:34.199Z,6.53
2022-10-26T14:05:23.245Z,6.35
2022-10-26T14:08:17.849Z,10.48
2022-10-26T14:11:06.482Z,5.88
2022-10-26T14:13:55.402Z,4.75
2022-10-26T14:16:46.770Z,5.65
2022-10-26T14:19:39.341Z,7.80
2022-10-26T14:22:30.379Z,5.47
2022-10-26T14:25:31.034Z,5.93
2022-10-26T14:28:41.636Z,4.90
2022-10-26T14:31:33.392Z,5.65
2022-10-26T14:34:22.326Z,6.95
2022-10-26T14:37:20.027Z,7.72
2022-10-26T14:40:14.940Z,5.20
2022-10-26T14:43:05.933Z,7.45
2022-10-26T14:45:56.891Z,5.15
2022-10-26T14:48:55.565Z,4.93
2022-10-26T14:51:43.954Z,8.07
2022-10-26T14:54:35.442Z,7.55
2022-10-26T14:57:35.169Z,7.88
2022-10-26T15:00:25.017Z,6.07
2022-10-26T15:03:18.255Z,11.50
2022-10-26T15:06:30.606Z,9.18
2022-10-26T15:09:51.013Z,7.30
2022-10-26T15:12:40.597Z,5.45
2022-10-26T15:15:29.044Z,6.78
2022-10-26T15:18:25.627Z,8.20
2022-10-26T15:21:24.583Z,13.85
2022-10-26T15:24:37.660Z,11.35
2022-10-26T15:27:28.672Z,8.13
2022-10-26T15:30:25.040Z,7.97
2022-10-26T15:33:22.182Z,7.13
2022-10-26T15:36:18.369Z,6.45
2022-10-26T15:39:06.907Z,5.25
2022-10-26T15:41:56.151Z,7.10
2022-10-26T15:44:45.735Z,8.73
2022-10-26T15:47:35.700Z,5.95
2022-10-26T15:50:25.801Z,8.15
2022-10-26T15:53:20.376Z,8.85
2022-10-26T15:56:15.781Z,8.82
2022-10-26T15:59:04.678Z,6.78
2022-10-26T16:01:54.388Z,6.97
2022-10-26T16:04:42.890Z,6.07
2022-10-26T16:07:31.498Z,6.75
2022-10-26T16:10:24.023Z,7.07
2022-10-26T16:13:14.581Z,8.32
2022-10-26T16:16:03.157Z,7.32
2022-10-26T16:19:11.795Z,7.93
2022-10-26T16:22:04.609Z,7.05
2022-10-26T16:24:52.875Z,6.32
2022-10-26T16:27:41.581Z,5.97
2022-10-26T16:30:31.426Z,7.43
2022-10-26T16:33:19.607Z,7.38
2022-10-26T16:36:11.843Z,6.47
2022-10-26T16:39:03.715Z,6.53
2022-10-26T16:44:41.149Z,6.72
2022-10-26T16:47:29.452Z,5.68
2022-10-26T16:50:20.706Z,5.72
2022-10-26T16:53:10.497Z,5.43
2022-10-26T16:56:04.465Z,5.88
2022-10-26T16:58:53.072Z,8.13
2022-10-26T17:01:41.835Z,5.82
2022-10-26T17:04:30.309Z,7.60
2022-10-26T17:07:18.510Z,5.18
2022-10-26T17:10:08.591Z,6.07
2022-10-26T17:12:57.772Z,4.50
2022-10-26T17:15:47.612Z,6.05
2022-10-26T17:18:36.716Z,5.68
2022-10-26T17:21:30.311Z,6.38
2022-10-26T17:24:19.171Z,5.95
2022-10-26T17:27:08.583Z,5.60
2022-10-26T17:29:56.967Z,5.15
2022-10-26T17:32:45.485Z,5.75
2022-10-26T17:35:34.112Z,5.28
2022-10-26T17:38:22.434Z,5.90
2022-10-26T17:41:12.836Z,4.82
2022-10-26T17:44:02.452Z,5.43
2022-10-26T17:46:50.750Z,5.25
2022-10-26T17:49:39.171Z,5.78
2022-10-26T17:52:27.460Z,4.97
2022-10-26T17:55:15.710Z,4.95
2022-10-26T17:58:04.060Z,6.35
2022-10-26T18:00:54.298Z,5.05
2022-10-26T18:03:43.064Z,6.73
2022-10-26T18:06:31.793Z,5.18
2022-10-26T18:09:20.488Z,5.75
2022-10-26T18:12:10.715Z,5.82
2022-10-26T18:14:58.933Z,6.80
2022-10-26T18:17:56.738Z,5.03
2022-10-26T18:20:46.611Z,5.78
2022-10-26T18:23:34.562Z,4.88
2022-10-26T18:26:24.217Z,5.63
2022-10-26T18:29:13.909Z,4.63
2022-10-26T18:32:02.404Z,7.07
2022-10-26T18:34:52.369Z,4.75
2022-10-26T18:37:40.982Z,4.25
2022-10-26T18:40:29.469Z,5.82
2022-10-26T18:43:18.165Z,4.45
2022-10-26T18:46:07.785Z,5.00
2022-10-26T18:48:56.405Z,6.72
2022-10-26T18:51:46.197Z,5.53
2022-10-26T18:54:34.674Z,5.95
2022-10-26T18:57:27.084Z,4.75
2022-10-26T19:00:16.370Z,5.03
2022-10-26T19:03:05.500Z,4.80
2022-10-26T19:05:54.080Z,4.65
2022-10-26T19:08:43.982Z,4.00
2022-10-26T19:11:33.541Z,4.60
2022-10-26T19:14:22.286Z,4.18
2022-10-26T19:17:11.118Z,5.63
2022-10-26T19:19:59.594Z,4.13
2022-10-26T19:22:48.297Z,4.75
2022-10-26T19:25:37.835Z,5.20
2022-10-26T19:28:26.670Z,4.30
2022-10-26T19:31:16.368Z,5.13
2022-10-26T19:34:06.114Z,4.07
2022-10-26T19:36:54.438Z,4.72
2022-10-26T19:39:43.430Z,4.38
2022-10-26T19:42:33.104Z,4.47
2022-10-26T19:45:22.288Z,4.45
2022-10-26T19:48:10.472Z,6.40
2022-10-26T19:50:58.977Z,4.53
2022-10-26T19:53:46.975Z,6.15
2022-10-26T19:56:37.599Z,5.20
2022-10-26T19:59:27.542Z,4.45
2022-10-26T20:02:16.095Z,4.65
2022-10-26T20:05:04.534Z,3.95
2022-10-26T20:07:53.039Z,6.70
2022-10-26T20:10:42.870Z,4.53
2022-10-26T20:13:31.335Z,3.42
2022-10-26T20:16:20.959Z,4.40
2022-10-26T20:19:09.639Z,5.35
2022-10-26T20:21:58.329Z,4.65
2022-10-26T20:24:47.006Z,3.80
2022-10-26T20:27:37.464Z,3.40
2022-10-26T20:30:25.895Z,3.80
2022-10-26T20:33:15.520Z,5.15
2022-10-26T20:36:04.747Z,4.40
2022-10-26T20:38:54.471Z,4.05
2022-10-26T20:41:44.006Z,4.35
2022-10-26T20:44:39.827Z,4.05
2022-10-26T20:47:29.016Z,4.55
2022-10-26T20:50:19.731Z,4.45
2022-10-26T20:53:12.801Z,5.40
2022-10-26T20:56:03.516Z,3.45
2022-10-26T20:58:54.981Z,4.05
2022-10-26T21:04:32.003Z,3.85
2022-10-26T21:07:21.919Z,4.20
2022-10-26T21:10:10.617Z,3.38
2022-10-26T21:12:58.467Z,4.00
2022-10-26T21:15:47.208Z,4.07
2022-10-26T21:18:35.535Z,3.22
2022-10-26T21:21:24.840Z,4.00
2022-10-26T21:24:14.455Z,3.65
2022-10-26T21:27:03.346Z,3.55
2022-10-26T21:29:51.625Z,3.40
2022-10-26T21:32:40.403Z,4.40
2022-10-26T21:35:28.637Z,3.95
2022-10-26T21:38:17.417Z,4.20
2022-10-26T21:41:08.350Z,4.07
2022-10-26T21:46:58.022Z,2.80
2022-10-26T21:49:47.016Z,3.75
2022-10-26T21:52:35.403Z,3.92
2022-10-26T21:55:23.797Z,3.53
2022-10-26T21:58:13.915Z,3.28
2022-10-26T22:01:09.550Z,3.75
2022-10-26T22:03:57.792Z,3.90
2022-10-26T22:06:46.259Z,3.83
2022-10-26T22:09:40.638Z,3.58
2022-10-26T22:12:37.766Z,3.60
2022-10-26T22:15:27.554Z,3.33
2022-10-26T22:18:16.436Z,3.22
2022-10-26T22:21:05.543Z,3.50
2022-10-26T22:23:55.286Z,3.17
2022-10-26T22:26:43.845Z,4.57
2022-10-26T22:29:32.038Z,3.88
2022-10-26T22:32:21.958Z,4.25
2022-10-26T22:35:24.794Z,3.55
2022-10-26T22:38:16.970Z,3.88
2022-10-26T22:41:06.004Z,3.47
2022-10-26T22:43:54.603Z,3.38
2022-10-26T22:46:43.097Z,3.72
2022-10-26T22:49:32.746Z,3.15
2022-10-26T22:52:22.624Z,3.30
2022-10-26T22:55:10.865Z,3.03
2022-10-26T22:57:59.330Z,3.65
2022-10-26T23:00:47.969Z,3.85
2022-10-26T23:03:37.188Z,3.63
2022-10-26T23:06:28.870Z,3.55
2022-10-26T23:09:17.327Z,4.10
2022-10-26T23:12:06.099Z,3.58
2022-10-26T23:14:54.279Z,4.32
2022-10-26T23:17:42.444Z,2.65
2022-10-26T23:20:33.339Z,3.55
2022-10-26T23:23:23.023Z,3.15
2022-10-26T23:26:13.995Z,4.07
2022-10-26T23:29:02.103Z,4.10
2022-10-26T23:31:50.423Z,4.35
2022-10-26T23:34:38.673Z,3.15
2022-10-26T23:37:27.492Z,3.38
2022-10-26T23:40:17.352Z,4.18
2022-10-26T23:43:05.931Z,3.50
2022-10-26T23:45:54.926Z,3.90
2022-10-26T23:48:43.405Z,3.60
2022-10-26T23:51:31.599Z,3.80
2022-10-26T23:54:20.086Z,2.58
2022-10-26T23:57:09.746Z,3.65
2022-10-26T23:59:58.037Z,3.47
